KDUC

Halliburton Field Airport

Duncan, Oklahoma, USA
METAR KDUC 120135Z AUTO 19010KT 10SM CLR 12/03 A3006 RMK AO2 T01150029
Observed Flight Rules
Dec-12 @ 01:35 UTC (20 minutes ago) Visual Flight Rules
Wind Visibility Clouds
190° at 10 knots 10 miles
  • Clear skies
Temperatures Readings
Current 12°C / 54°F
Dewpoint 3°C / 37°F
Humidity 54%
Altimeter 30.06" Hg
Pressure 1018 hPa
Elevation 339
METAR KDUC 120135Z AUTO 19010KT 10SM CLR 12/03 A3006 RMK AO2 T01150029
Observed Flight Rules
Dec-12 @ 01:35 UTC
(20 minutes ago)
VFR
Wind Visibility
190° at 10 knots 10 miles
Clouds
  • Clear skies
Temperature Dewpoint
12°C / 54°F 3°C / 37°F
Humidity Altimeter Pressure
54% 30.06" Hg 1018 hPa